createdAt,value
2018-12-30T00:02:28.761Z,3.53
2018-12-30T00:07:32.823Z,4.30
2018-12-30T00:12:36.280Z,3.13
2018-12-30T00:17:41.018Z,2.80
2018-12-30T00:22:46.867Z,4.57
2018-12-30T00:27:49.742Z,6.17
2018-12-30T00:32:53.380Z,5.70
2018-12-30T00:37:56.776Z,3.83
2018-12-30T00:42:59.744Z,5.27
2018-12-30T00:48:02.602Z,4.17
2018-12-30T00:53:07.574Z,3.77
2018-12-30T00:58:11.348Z,4.73
2018-12-30T01:03:15.313Z,2.73
2018-12-30T01:08:18.765Z,3.13
2018-12-30T01:13:22.358Z,3.83
2018-12-30T01:18:25.221Z,3.07
2018-12-30T01:23:28.827Z,4.30
2018-12-30T01:28:42.847Z,2.53
2018-12-30T01:33:47.218Z,1.90
2018-12-30T01:38:50.127Z,3.60
2018-12-30T01:43:53.812Z,3.43
2018-12-30T01:48:57.280Z,3.13
2018-12-30T01:54:00.313Z,2.73
2018-12-30T01:59:04.502Z,3.23
2018-12-30T02:04:09.608Z,5.47
2018-12-30T02:09:13.413Z,3.53
2018-12-30T02:14:16.878Z,2.37
2018-12-30T02:19:21.527Z,3.57
2018-12-30T02:24:26.760Z,3.97
2018-12-30T02:29:33.460Z,4.27
2018-12-30T02:34:36.256Z,2.40
2018-12-30T02:39:42.356Z,3.17
2018-12-30T02:44:45.209Z,3.50
2018-12-30T02:49:48.017Z,3.57
2018-12-30T02:54:51.336Z,2.83
2018-12-30T02:59:54.516Z,3.90
2018-12-30T03:04:57.419Z,3.07
2018-12-30T03:10:03.543Z,3.73
2018-12-30T03:15:08.347Z,3.87
2018-12-30T03:20:11.182Z,2.13
2018-12-30T03:25:14.040Z,2.80
2018-12-30T03:30:17.952Z,2.53
2018-12-30T03:35:21.405Z,3.57
2018-12-30T03:40:24.190Z,3.53
2018-12-30T03:45:27.119Z,2.63
2018-12-30T03:50:30.928Z,3.90
2018-12-30T03:55:34.138Z,2.40
2018-12-30T04:00:37.018Z,2.50
2018-12-30T04:05:39.876Z,2.13
2018-12-30T04:10:43.586Z,2.70
2018-12-30T04:15:51.365Z,2.37
2018-12-30T04:20:54.952Z,1.73
2018-12-30T04:25:57.755Z,2.13
2018-12-30T04:31:01.493Z,2.10
2018-12-30T04:36:05.353Z,2.60
2018-12-30T04:41:08.908Z,1.67
2018-12-30T04:46:13.450Z,1.83
2018-12-30T04:51:16.253Z,1.63
2018-12-30T04:56:22.571Z,2.47
2018-12-30T05:29:42.991Z,2.00
2018-12-30T05:34:46.643Z,1.90
2018-12-30T05:39:51.304Z,1.43
2018-12-30T05:45:12.287Z,2.53
2018-12-30T05:50:18.431Z,1.70
2018-12-30T05:55:22.887Z,2.57
2018-12-30T06:00:28.691Z,3.37
2018-12-30T06:05:33.259Z,2.27
2018-12-30T06:10:37.923Z,2.80
2018-12-30T06:15:42.355Z,5.83
2018-12-30T06:20:46.347Z,3.67
2018-12-30T06:25:52.183Z,3.57
2018-12-30T06:30:57.958Z,2.60
2018-12-30T06:36:01.447Z,2.20
2018-12-30T06:41:04.687Z,6.67
2018-12-30T06:46:08.413Z,4.07
2018-12-30T06:51:15.094Z,4.33
2018-12-30T06:56:18.346Z,5.20
2018-12-30T07:01:21.112Z,6.17
2018-12-30T07:06:25.431Z,3.53
2018-12-30T07:11:28.402Z,5.63
2018-12-30T07:16:31.275Z,5.90
2018-12-30T07:21:34.288Z,4.20
2018-12-30T07:26:36.993Z,3.13
2018-12-30T07:31:41.576Z,5.07
2018-12-30T07:36:45.364Z,5.00
2018-12-30T07:41:49.896Z,3.43
2018-12-30T07:46:53.588Z,4.17
2018-12-30T07:51:56.999Z,3.93
2018-12-30T07:57:00.435Z,5.07
2018-12-30T08:02:03.183Z,5.40
2018-12-30T08:07:07.023Z,4.67
2018-12-30T08:12:10.506Z,3.73
2018-12-30T08:17:14.608Z,3.77
2018-12-30T08:22:18.751Z,4.33
2018-12-30T08:27:21.869Z,4.60
2018-12-30T08:32:27.035Z,4.50
2018-12-30T08:37:32.772Z,4.40
2018-12-30T08:42:35.932Z,4.43
2018-12-30T08:47:39.712Z,3.67
2018-12-30T08:52:42.898Z,1.93
2018-12-30T08:57:49.387Z,3.77
2018-12-30T09:02:54.344Z,4.30
2018-12-30T09:08:00.445Z,3.50
2018-12-30T09:13:04.439Z,3.47
2018-12-30T09:18:08.421Z,2.83
2018-12-30T09:23:12.412Z,3.60
2018-12-30T09:28:19.614Z,3.00
2018-12-30T09:33:23.780Z,3.53
2018-12-30T09:38:31.180Z,3.57
2018-12-30T09:43:36.075Z,2.50
2018-12-30T09:48:42.143Z,2.47
2018-12-30T09:53:45.600Z,3.83
2018-12-30T09:58:48.671Z,3.00
2018-12-30T10:03:51.541Z,3.33
2018-12-30T10:08:55.730Z,3.67
2018-12-30T10:14:01.476Z,3.80
2018-12-30T10:19:14.542Z,2.80
2018-12-30T10:24:18.768Z,2.67
2018-12-30T10:29:21.700Z,2.60
2018-12-30T10:34:26.156Z,2.73
2018-12-30T10:39:29.288Z,2.50
2018-12-30T10:44:33.386Z,2.67
2018-12-30T10:49:37.482Z,3.00
2018-12-30T10:54:40.415Z,1.30
2018-12-30T10:59:44.556Z,2.40
2018-12-30T11:04:49.103Z,2.90
2018-12-30T11:09:52.107Z,2.37
2018-12-30T11:14:54.962Z,2.47
2018-12-30T11:20:00.867Z,2.73
2018-12-30T11:25:05.279Z,2.50
2018-12-30T11:30:08.979Z,2.30
2018-12-30T11:35:20.072Z,2.30
2018-12-30T11:40:23.840Z,1.43
2018-12-30T11:45:30.312Z,2.30
2018-12-30T11:50:33.204Z,2.80
2018-12-30T11:55:36.135Z,2.70
2018-12-30T12:00:39.737Z,2.73
2018-12-30T12:05:44.344Z,2.93
2018-12-30T12:10:48.711Z,2.93
2018-12-30T12:15:52.757Z,2.80
2018-12-30T12:20:57.628Z,2.90
2018-12-30T12:26:01.815Z,3.20
2018-12-30T12:31:14.171Z,2.97
2018-12-30T12:36:18.746Z,1.87
2018-12-30T12:41:22.334Z,3.33
2018-12-30T12:46:26.809Z,3.00
2018-12-30T12:51:30.659Z,2.60
2018-12-30T12:56:38.679Z,2.80
2018-12-30T13:01:43.947Z,2.70
2018-12-30T13:06:48.603Z,2.23
2018-12-30T13:11:52.798Z,3.50
2018-12-30T13:16:56.496Z,2.70
2018-12-30T13:21:59.724Z,3.13
2018-12-30T13:27:05.948Z,3.00
2018-12-30T13:32:10.867Z,3.93
2018-12-30T13:37:18.711Z,3.90
2018-12-30T13:42:23.533Z,4.43
2018-12-30T13:47:26.527Z,3.20
2018-12-30T13:52:30.267Z,3.03
2018-12-30T13:57:33.853Z,2.93
2018-12-30T14:02:38.804Z,3.20
2018-12-30T14:07:47.912Z,3.90
2018-12-30T14:12:51.480Z,3.63
2018-12-30T14:17:58.607Z,4.63
2018-12-30T14:23:02.458Z,3.80
2018-12-30T14:28:07.206Z,4.17
2018-12-30T14:33:15.921Z,4.47
2018-12-30T14:38:20.591Z,2.80
2018-12-30T14:43:24.552Z,4.60
2018-12-30T14:48:28.570Z,2.13
2018-12-30T14:53:32.035Z,5.60
2018-12-30T14:58:35.732Z,5.50
2018-12-30T15:03:40.225Z,4.67
2018-12-30T15:08:44.364Z,5.63
2018-12-30T15:13:47.458Z,4.77
2018-12-30T15:18:51.343Z,5.20
2018-12-30T15:23:54.673Z,5.57
2018-12-30T15:28:57.962Z,6.30
2018-12-30T15:34:00.932Z,3.87
2018-12-30T15:39:07.314Z,4.70
2018-12-30T15:44:10.598Z,5.13
2018-12-30T15:49:14.531Z,5.43
2018-12-30T15:54:28.846Z,6.63
2018-12-30T15:59:33.973Z,6.83
2018-12-30T16:04:38.973Z,5.43
2018-12-30T16:09:44.705Z,7.47
2018-12-30T16:14:47.965Z,6.37
2018-12-30T16:19:51.998Z,4.87
2018-12-30T16:24:55.107Z,3.93
2018-12-30T16:29:58.442Z,6.73
2018-12-30T16:35:01.865Z,6.23
2018-12-30T16:40:06.514Z,5.80
2018-12-30T16:45:12.746Z,7.13
2018-12-30T16:50:17.064Z,5.43
2018-12-30T16:55:19.913Z,5.33
2018-12-30T17:00:23.343Z,7.63
2018-12-30T17:05:26.514Z,7.90
2018-12-30T17:10:30.687Z,8.80
2018-12-30T17:15:33.531Z,8.47
2018-12-30T17:20:36.580Z,7.07
2018-12-30T17:25:42.937Z,5.90
2018-12-30T17:30:45.410Z,7.00
2018-12-30T17:35:48.537Z,5.07
2018-12-30T17:41:01.351Z,8.10
2018-12-30T17:45:58.821Z,8.53
2018-12-30T17:51:03.271Z,8.40
2018-12-30T17:56:07.334Z,8.20
2018-12-30T18:01:10.523Z,8.33
2018-12-30T18:06:13.392Z,6.17
2018-12-30T18:11:16.150Z,8.60
2018-12-30T18:16:19.043Z,8.83
2018-12-30T18:21:22.707Z,10.10
2018-12-30T18:26:26.352Z,10.17
2018-12-30T18:31:33.385Z,8.43
2018-12-30T18:36:41.510Z,11.17
2018-12-30T18:41:44.389Z,9.07
2018-12-30T18:46:48.052Z,11.00
2018-12-30T18:51:52.240Z,11.60
2018-12-30T18:56:55.818Z,10.70
2018-12-30T19:02:02.227Z,8.87
2018-12-30T19:07:06.119Z,9.10
2018-12-30T19:12:09.892Z,5.63
2018-12-30T19:17:13.624Z,6.93
2018-12-30T19:22:18.785Z,9.33
2018-12-30T19:27:23.284Z,11.30
2018-12-30T19:32:28.877Z,6.80
2018-12-30T19:37:33.782Z,9.63
2018-12-30T19:42:38.230Z,11.50
2018-12-30T19:47:42.100Z,10.73
2018-12-30T19:52:47.342Z,10.27
2018-12-30T19:57:53.489Z,10.23
2018-12-30T20:02:57.805Z,10.80
2018-12-30T20:08:02.957Z,11.83
2018-12-30T20:13:09.111Z,12.30
2018-12-30T20:18:13.908Z,9.23
2018-12-30T20:23:17.748Z,11.27
2018-12-30T20:28:21.323Z,11.33
2018-12-30T20:33:27.264Z,12.83
2018-12-30T20:38:31.507Z,10.30
2018-12-30T20:43:35.037Z,7.17
2018-12-30T20:48:40.291Z,8.80
2018-12-30T20:53:47.676Z,12.33
2018-12-30T20:58:58.950Z,10.50
2018-12-30T21:04:08.188Z,8.37
2018-12-30T21:09:11.617Z,13.63
2018-12-30T21:14:15.136Z,10.83
2018-12-30T21:19:18.688Z,12.63
2018-12-30T21:24:22.043Z,11.73
2018-12-30T21:29:26.944Z,5.77
2018-12-30T21:34:31.735Z,7.40
2018-12-30T21:39:35.408Z,12.50
2018-12-30T21:44:40.829Z,15.57
2018-12-30T21:49:43.684Z,11.97
2018-12-30T21:54:51.740Z,13.73
2018-12-30T21:59:59.505Z,14.83
2018-12-30T22:05:10.524Z,14.93
2018-12-30T22:10:17.611Z,13.07
2018-12-30T22:15:24.996Z,11.77
2018-12-30T22:20:28.429Z,16.07
2018-12-30T22:25:31.647Z,13.60
2018-12-30T22:30:39.386Z,13.77
2018-12-30T22:35:43.503Z,11.80
2018-12-30T22:40:51.044Z,7.87
2018-12-30T22:45:55.572Z,14.00
2018-12-30T22:51:00.123Z,14.50
2018-12-30T22:56:05.435Z,12.13
2018-12-30T23:01:15.892Z,10.13
2018-12-30T23:06:20.456Z,11.67
2018-12-30T23:11:24.437Z,9.43
2018-12-30T23:16:29.020Z,11.03
2018-12-30T23:21:32.461Z,8.17
2018-12-30T23:26:36.001Z,9.53
2018-12-30T23:31:49.446Z,8.17
2018-12-30T23:36:55.299Z,5.97
2018-12-30T23:41:58.935Z,9.73
2018-12-30T23:47:03.325Z,4.53
2018-12-30T23:52:11.380Z,6.37
2018-12-30T23:57:15.957Z,6.70
